Time;durP1;ratioP1;P1;durP2;ratioP2;P2;SDS_P1;SDS_P2;PMS_P1;PMS_P2;Temp;Humidity;BMP_temperature;BMP_pressure;BME280_temperature;BME280_humidity;BME280_pressure;Samples;Min_cycle;Max_cycle;Signal;HPM_P1;HPM_P2
2021/08/26 00:00:57;;;;;;;5.65;2.58;;;15.70;99.90;;;;;;4973468;28;20037;-55
2021/08/26 00:06:08;;;;;;;;;;;15.70;99.90;;;;;;4973150;28;20062;-55
2021/08/26 00:08:34;;;;;;;5.07;2.83;;;15.70;99.90;;;;;;4970868;28;20545;-54
2021/08/26 00:11:00;;;;;;;3.83;2.90;;;15.70;99.90;;;;;;4974584;28;20038;-56
2021/08/26 00:13:27;;;;;;;5.10;3.22;;;15.70;99.90;;;;;;4972086;28;20547;-54
2021/08/26 00:15:55;;;;;;;5.10;3.63;;;15.70;99.90;;;;;;4969439;28;20027;-56
2021/08/26 00:18:23;;;;;;;5.10;3.17;;;15.70;99.90;;;;;;4971695;28;20035;-56
2021/08/26 00:20:52;;;;;;;4.15;3.03;;;15.60;99.90;;;;;;4963035;28;20515;-57
2021/08/26 00:23:18;;;;;;;5.45;3.58;;;15.70;99.90;;;;;;4960830;28;20050;-54
2021/08/26 00:25:44;;;;;;;4.22;2.65;;;15.70;99.90;;;;;;4958324;28;20532;-58
2021/08/26 00:28:09;;;;;;;5.93;2.63;;;15.60;99.90;;;;;;4966845;28;20059;-58
2021/08/26 00:30:35;;;;;;;6.68;3.22;;;15.60;99.90;;;;;;4961996;28;20023;-56
2021/08/26 00:33:00;;;;;;;5.13;3.45;;;15.60;99.90;;;;;;4962423;28;20065;-55
2021/08/26 00:35:26;;;;;;;5.65;3.78;;;15.60;99.90;;;;;;4955301;28;20054;-56
2021/08/26 00:37:51;;;;;;;6.03;4.18;;;15.60;99.90;;;;;;4956766;28;20485;-54
2021/08/26 00:40:17;;;;;;;7.57;4.72;;;15.60;99.90;;;;;;4959061;28;20440;-56
2021/08/26 00:42:43;;;;;;;6.20;4.47;;;15.60;99.90;;;;;;4964532;28;20073;-57
2021/08/26 00:45:11;;;;;;;8.43;5.40;;;15.50;99.90;;;;;;4949643;28;20118;-57
2021/08/26 00:47:38;;;;;;;14.20;7.88;;;15.50;99.90;;;;;;4963527;28;20146;-54
2021/08/26 00:50:04;;;;;;;9.82;5.68;;;15.40;99.90;;;;;;4967830;28;20105;-56
2021/08/26 00:52:29;;;;;;;12.55;8.80;;;15.40;99.90;;;;;;4970721;28;20113;-57
2021/08/26 00:54:55;;;;;;;10.75;8.45;;;15.40;99.90;;;;;;4964439;28;20031;-57
2021/08/26 00:57:24;;;;;;;12.07;8.02;;;15.30;99.90;;;;;;4970171;28;20031;-57
2021/08/26 00:59:52;;;;;;;15.93;10.68;;;15.40;99.90;;;;;;4962708;28;20158;-55
2021/08/26 01:02:41;;;;;;;13.45;10.80;;;15.40;99.90;;;;;;4966880;28;20038;-54
2021/08/26 01:05:07;;;;;;;13.32;10.77;;;15.30;99.90;;;;;;4964295;28;20082;-55
2021/08/26 01:07:57;;;;;;;20.88;12.38;;;15.30;99.90;;;;;;4960970;28;20467;-52
2021/08/26 01:10:24;;;;;;;17.10;11.82;;;15.20;99.90;;;;;;4959670;28;20041;-53
2021/08/26 01:12:56;;;;;;;13.25;10.88;;;15.20;99.90;;;;;;4975067;28;20039;-58
2021/08/26 01:15:26;;;;;;;15.55;12.48;;;15.20;99.90;;;;;;4967180;28;20410;-57
2021/08/26 01:17:53;;;;;;;15.70;11.75;;;15.20;99.90;;;;;;4969600;28;20480;-56
2021/08/26 01:20:19;;;;;;;15.25;11.32;;;15.20;99.90;;;;;;4963116;28;20142;-58
2021/08/26 01:22:45;;;;;;;16.45;12.65;;;15.30;99.90;;;;;;4969295;28;20058;-54
2021/08/26 01:25:14;;;;;;;20.73;12.85;;;15.20;99.90;;;;;;4950468;28;20042;-53
2021/08/26 01:27:44;;;;;;;20.73;13.88;;;15.20;99.90;;;;;;4972675;28;20042;-58
2021/08/26 01:30:18;;;;;;;22.45;14.10;;;15.20;99.90;;;;;;4976901;28;20018;-51
2021/08/26 01:32:44;;;;;;;17.95;14.02;;;15.20;99.90;;;;;;4973569;28;20030;-53
2021/08/26 01:35:12;;;;;;;20.65;13.93;;;15.10;99.90;;;;;;4966979;28;20027;-55
2021/08/26 01:37:40;;;;;;;17.23;13.52;;;15.10;99.90;;;;;;4973539;28;20024;-56
2021/08/26 01:40:07;;;;;;;20.58;15.07;;;15.00;99.90;;;;;;4967687;28;20093;-55
2021/08/26 01:42:35;;;;;;;22.02;14.65;;;15.00;99.90;;;;;;4974974;28;20031;-56
2021/08/26 01:45:00;;;;;;;19.42;15.35;;;15.00;99.90;;;;;;4962067;28;20153;-57
2021/08/26 01:47:26;;;;;;;22.95;16.35;;;14.90;99.90;;;;;;4972348;28;20106;-56
2021/08/26 01:49:52;;;;;;;21.98;16.40;;;14.90;99.90;;;;;;4969912;28;20031;-58
2021/08/26 01:52:23;;;;;;;19.67;15.38;;;14.90;99.90;;;;;;4971983;28;20053;-58
2021/08/26 01:54:50;;;;;;;19.80;15.13;;;14.90;99.90;;;;;;4970525;28;20027;-58
2021/08/26 01:57:17;;;;;;;20.45;15.60;;;14.80;99.90;;;;;;4974806;28;20816;-54
2021/08/26 01:59:42;;;;;;;19.50;14.63;;;14.90;99.90;;;;;;4969466;28;20485;-56
2021/08/26 02:02:08;;;;;;;18.80;15.10;;;14.90;99.90;;;;;;4966184;28;20035;-54
2021/08/26 02:04:33;;;;;;;18.50;13.85;;;14.80;99.90;;;;;;4970505;28;20155;-56
2021/08/26 02:06:59;;;;;;;20.63;14.65;;;14.80;99.90;;;;;;4968117;28;20038;-57
2021/08/26 02:09:24;;;;;;;18.35;13.95;;;14.80;99.90;;;;;;4968066;28;20824;-55
2021/08/26 02:11:50;;;;;;;20.75;14.05;;;14.80;99.90;;;;;;4972325;28;20484;-55
2021/08/26 02:14:15;;;;;;;22.73;13.77;;;14.70;99.90;;;;;;4967227;28;20455;-53
2021/08/26 02:16:41;;;;;;;18.20;14.00;;;14.80;99.90;;;;;;4971544;28;20444;-51
2021/08/26 02:19:06;;;;;;;18.08;14.13;;;14.80;99.90;;;;;;4950666;28;20118;-55
2021/08/26 02:21:32;;;;;;;19.52;15.60;;;14.80;99.90;;;;;;4961207;28;20029;-54
2021/08/26 02:23:58;;;;;;;18.58;14.77;;;14.80;99.90;;;;;;4972118;28;20029;-53
2021/08/26 02:26:24;;;;;;;21.90;14.63;;;14.80;99.90;;;;;;4956844;28;20435;-55
2021/08/26 02:28:50;;;;;;;17.40;14.10;;;14.80;99.90;;;;;;4981483;28;20027;-54
2021/08/26 02:31:15;;;;;;;19.92;14.65;;;14.80;99.90;;;;;;4976832;28;20039;-54
2021/08/26 02:33:41;;;;;;;18.70;14.55;;;14.80;99.90;;;;;;4971139;28;20503;-55
2021/08/26 02:36:07;;;;;;;23.08;15.27;;;14.80;99.90;;;;;;4973599;28;20035;-53
2021/08/26 02:38:32;;;;;;;22.08;14.88;;;14.70;99.90;;;;;;4965113;28;20477;-58
2021/08/26 02:40:58;;;;;;;19.83;14.45;;;14.70;99.90;;;;;;4974373;28;20031;-51
2021/08/26 02:43:23;;;;;;;21.25;14.45;;;14.80;99.90;;;;;;4972032;28;20081;-56
2021/08/26 02:45:49;;;;;;;21.20;13.93;;;14.80;99.90;;;;;;4977506;28;20061;-57
2021/08/26 02:48:14;;;;;;;20.98;13.38;;;14.80;99.90;;;;;;4959973;28;20031;-55
2021/08/26 02:50:40;;;;;;;17.88;13.30;;;14.80;99.90;;;;;;4971794;28;20035;-53
2021/08/26 02:53:05;;;;;;;18.98;12.30;;;14.80;99.90;;;;;;4969158;28;20584;-54
2021/08/26 02:55:31;;;;;;;13.57;9.85;;;14.80;99.90;;;;;;4962776;28;20050;-55
2021/08/26 02:57:56;;;;;;;13.43;10.32;;;14.80;99.90;;;;;;4971816;28;20642;-56
2021/08/26 03:00:22;;;;;;;9.82;7.43;;;14.80;99.90;;;;;;4977106;28;20093;-55
2021/08/26 03:02:48;;;;;;;7.53;5.30;;;14.80;99.90;;;;;;4973990;28;20502;-53
2021/08/26 03:05:13;;;;;;;7.85;4.80;;;14.70;99.90;;;;;;4976434;28;20519;-56
2021/08/26 03:07:39;;;;;;;6.95;3.90;;;14.60;99.90;;;;;;4972595;28;20022;-56
2021/08/26 03:10:05;;;;;;;7.75;3.40;;;14.50;99.90;;;;;;4968882;28;20097;-57
2021/08/26 03:12:30;;;;;;;11.88;3.80;;;14.30;99.90;;;;;;4971817;28;20027;-57
2021/08/26 03:14:56;;;;;;;13.85;3.33;;;14.20;99.90;;;;;;4967597;28;20023;-55
2021/08/26 03:17:21;;;;;;;9.05;4.25;;;14.10;99.90;;;;;;4969987;28;20036;-53
2021/08/26 03:19:47;;;;;;;4.88;3.00;;;14.00;99.90;;;;;;4973806;28;20030;-56
2021/08/26 03:22:12;;;;;;;14.55;3.83;;;14.00;99.90;;;;;;4978335;28;20035;-56
2021/08/26 03:24:38;;;;;;;17.52;3.67;;;13.90;99.90;;;;;;4955614;28;20054;-55
2021/08/26 03:27:03;;;;;;;7.53;3.25;;;13.90;99.90;;;;;;4975201;28;20029;-55
2021/08/26 03:29:29;;;;;;;9.35;3.60;;;13.80;99.90;;;;;;4969977;28;20058;-56
2021/08/26 03:31:55;;;;;;;5.63;3.25;;;13.90;99.90;;;;;;4979826;28;20105;-56
2021/08/26 03:34:20;;;;;;;11.60;3.53;;;13.80;99.90;;;;;;4966755;28;20035;-55
2021/08/26 03:36:46;;;;;;;12.02;3.33;;;13.90;99.90;;;;;;4973046;28;20038;-53
2021/08/26 03:39:11;;;;;;;13.35;3.72;;;13.90;99.90;;;;;;4972386;28;20062;-55
2021/08/26 03:41:37;;;;;;;10.20;3.85;;;13.90;99.90;;;;;;4971051;28;20034;-53
2021/08/26 03:44:02;;;;;;;7.97;3.35;;;13.90;99.90;;;;;;4971006;28;20030;-54
2021/08/26 03:46:30;;;;;;;10.18;4.13;;;13.80;99.90;;;;;;4979568;28;20495;-56
2021/08/26 03:48:56;;;;;;;8.98;3.92;;;13.80;99.90;;;;;;4968291;28;20020;-55
2021/08/26 03:51:21;;;;;;;15.43;4.00;;;13.80;99.90;;;;;;4971985;28;20031;-56
2021/08/26 03:53:47;;;;;;;9.23;3.45;;;13.80;99.90;;;;;;4971944;28;20137;-56
2021/08/26 03:56:13;;;;;;;13.55;5.22;;;13.70;99.90;;;;;;4976014;28;20491;-57
2021/08/26 03:58:38;;;;;;;9.25;4.38;;;13.70;99.90;;;;;;4969178;28;20067;-56
2021/08/26 04:01:05;;;;;;;14.40;4.65;;;13.60;99.90;;;;;;4975528;28;20034;-56
2021/08/26 04:03:31;;;;;;;7.72;3.78;;;13.70;99.90;;;;;;4968272;28;20045;-56
2021/08/26 04:05:57;;;;;;;13.85;4.45;;;13.60;99.90;;;;;;4974043;28;20132;-56
2021/08/26 04:08:23;;;;;;;13.50;4.13;;;13.60;99.90;;;;;;4968144;28;20636;-56
2021/08/26 04:10:48;;;;;;;11.48;4.90;;;13.60;99.90;;;;;;4981997;28;20030;-56
2021/08/26 04:13:14;;;;;;;12.55;4.63;;;13.50;99.90;;;;;;4967679;28;20050;-56
2021/08/26 04:15:40;;;;;;;14.18;4.88;;;13.50;99.90;;;;;;4968168;28;20027;-56
2021/08/26 04:18:05;;;;;;;12.75;5.07;;;13.40;99.90;;;;;;4972895;28;20038;-57
2021/08/26 04:20:31;;;;;;;9.32;3.70;;;13.40;99.90;;;;;;4971542;28;20470;-57
2021/08/26 04:22:57;;;;;;;15.20;5.90;;;13.40;99.90;;;;;;4973793;28;20023;-54
2021/08/26 04:25:22;;;;;;;11.20;4.70;;;13.30;99.90;;;;;;4959009;28;20050;-55
2021/08/26 04:27:48;;;;;;;13.98;5.13;;;13.30;99.90;;;;;;4970684;28;20550;-55
2021/08/26 04:30:14;;;;;;;17.55;5.15;;;13.30;99.90;;;;;;4964664;28;20031;-56
2021/08/26 04:32:39;;;;;;;13.30;5.20;;;13.30;99.90;;;;;;4978077;28;20105;-56
2021/08/26 04:35:05;;;;;;;9.85;5.70;;;13.40;99.90;;;;;;4967230;28;20663;-55
2021/08/26 04:37:31;;;;;;;14.68;4.68;;;13.30;99.90;;;;;;4972949;28;20047;-56
2021/08/26 04:39:57;;;;;;;13.55;4.75;;;13.40;99.90;;;;;;4970002;28;20073;-58
2021/08/26 04:42:22;;;;;;;11.50;4.72;;;13.40;99.90;;;;;;4973764;28;20037;-54
2021/08/26 04:44:48;;;;;;;9.80;4.53;;;13.40;99.90;;;;;;4972757;28;20030;-56
2021/08/26 04:47:13;;;;;;;17.42;4.78;;;13.50;99.90;;;;;;4975821;28;20086;-58
2021/08/26 04:49:39;;;;;;;10.63;4.82;;;13.50;99.90;;;;;;4970582;28;20085;-55
2021/08/26 04:52:05;;;;;;;19.23;4.43;;;13.50;99.90;;;;;;4973117;28;20541;-56
2021/08/26 04:54:30;;;;;;;14.93;4.88;;;13.50;99.90;;;;;;4977946;28;20054;-53
2021/08/26 04:56:56;;;;;;;13.30;4.78;;;13.50;99.90;;;;;;4970489;28;20720;-55
2021/08/26 04:59:21;;;;;;;13.50;4.60;;;13.50;99.90;;;;;;4964576;28;20042;-55
2021/08/26 05:01:47;;;;;;;9.50;4.05;;;13.50;99.90;;;;;;4971919;28;20065;-58
2021/08/26 05:04:13;;;;;;;20.80;4.03;;;13.50;99.90;;;;;;4975054;28;20488;-57
2021/08/26 05:06:38;;;;;;;14.05;4.38;;;13.50;99.90;;;;;;4975186;28;20033;-57
2021/08/26 05:09:04;;;;;;;12.73;4.18;;;13.50;99.90;;;;;;4970786;28;20038;-57
2021/08/26 05:11:29;;;;;;;13.45;4.45;;;13.50;99.90;;;;;;4971737;28;20038;-57
2021/08/26 05:13:55;;;;;;;10.95;3.47;;;13.60;99.90;;;;;;4972217;28;20519;-54
2021/08/26 05:16:20;;;;;;;15.77;4.80;;;13.60;99.90;;;;;;4971960;28;20023;-60
2021/08/26 05:18:46;;;;;;;13.15;4.07;;;13.60;99.90;;;;;;4960436;28;20086;-54
2021/08/26 05:21:12;;;;;;;25.08;4.75;;;13.60;99.90;;;;;;4970543;28;20022;-55
2021/08/26 05:23:37;;;;;;;12.68;4.45;;;13.70;99.90;;;;;;4972799;28;20150;-58
2021/08/26 05:26:04;;;;;;;9.45;3.95;;;13.70;99.90;;;;;;4956888;28;20027;-56
2021/08/26 05:28:29;;;;;;;15.07;4.15;;;13.70;99.90;;;;;;4977964;28;20041;-58
2021/08/26 05:30:55;;;;;;;12.57;3.60;;;13.70;99.90;;;;;;4970766;28;20678;-57
2021/08/26 05:33:21;;;;;;;13.07;3.92;;;13.80;99.90;;;;;;4966388;28;20039;-58
2021/08/26 05:35:46;;;;;;;11.02;2.85;;;13.80;99.90;;;;;;4962407;28;20057;-56
2021/08/26 05:38:13;;;;;;;10.52;3.60;;;13.80;99.90;;;;;;4972654;28;20049;-56
2021/08/26 05:40:38;;;;;;;5.72;2.50;;;13.90;99.90;;;;;;4964940;28;20022;-53
2021/08/26 05:43:04;;;;;;;10.90;3.63;;;13.90;99.90;;;;;;4968381;28;20034;-56
2021/08/26 05:45:30;;;;;;;9.95;3.13;;;14.00;99.90;;;;;;4956006;28;20028;-56
2021/08/26 05:47:55;;;;;;;10.88;2.72;;;14.00;99.90;;;;;;4971293;28;20508;-55
2021/08/26 05:50:22;;;;;;;7.80;2.10;;;14.00;99.90;;;;;;4953100;28;20074;-57
2021/08/26 05:52:48;;;;;;;11.23;3.10;;;14.00;99.90;;;;;;4959550;28;20408;-57
2021/08/26 05:55:16;;;;;;;9.23;2.53;;;14.00;99.90;;;;;;4963352;28;21024;-56
2021/08/26 05:57:42;;;;;;;9.63;2.55;;;14.00;99.90;;;;;;4968619;28;20117;-57
2021/08/26 06:00:08;;;;;;;11.75;2.50;;;14.00;99.90;;;;;;4974727;28;20102;-57
2021/08/26 06:02:34;;;;;;;11.68;3.30;;;14.10;99.90;;;;;;4976464;28;20039;-58
2021/08/26 06:04:59;;;;;;;12.55;3.00;;;14.00;99.90;;;;;;4980617;28;20023;-58
2021/08/26 06:07:25;;;;;;;12.13;2.88;;;14.10;99.90;;;;;;4975453;28;20029;-57
2021/08/26 06:09:50;;;;;;;10.82;2.50;;;14.10;99.90;;;;;;4971982;28;20403;-57
2021/08/26 06:12:16;;;;;;;7.40;2.15;;;14.10;99.90;;;;;;4975092;28;20042;-59
2021/08/26 06:14:41;;;;;;;15.82;4.28;;;14.10;99.90;;;;;;4973442;28;20031;-57
2021/08/26 06:17:07;;;;;;;9.95;2.50;;;14.20;99.90;;;;;;4966234;28;20503;-56
2021/08/26 06:19:33;;;;;;;14.52;2.70;;;14.20;99.90;;;;;;4973196;28;20034;-57
2021/08/26 06:21:58;;;;;;;12.90;3.17;;;14.30;99.90;;;;;;4973757;28;20034;-58
2021/08/26 06:24:24;;;;;;;5.60;2.38;;;14.40;99.90;;;;;;4968322;28;20019;-58
2021/08/26 06:26:49;;;;;;;11.40;3.10;;;14.40;99.90;;;;;;4959883;28;20039;-57
2021/08/26 06:29:15;;;;;;;8.93;2.42;;;14.50;99.90;;;;;;4970694;28;20035;-58
2021/08/26 06:31:41;;;;;;;8.32;2.58;;;14.60;99.90;;;;;;4975885;28;20420;-58
2021/08/26 06:34:06;;;;;;;8.23;2.90;;;14.60;99.90;;;;;;4977149;28;20034;-57
2021/08/26 06:36:32;;;;;;;11.93;3.90;;;14.70;99.90;;;;;;4978631;28;20404;-57
2021/08/26 06:38:58;;;;;;;8.05;2.58;;;14.70;99.90;;;;;;4970587;28;20400;-56
2021/08/26 06:41:25;;;;;;;7.07;2.70;;;14.60;99.90;;;;;;4977596;28;20030;-58
2021/08/26 06:43:50;;;;;;;10.52;3.13;;;14.60;99.90;;;;;;4966976;28;20034;-57
2021/08/26 06:46:16;;;;;;;13.63;3.00;;;14.70;99.90;;;;;;4979634;28;20426;-57
2021/08/26 06:48:42;;;;;;;11.73;3.28;;;14.70;99.90;;;;;;4974079;28;20077;-58
2021/08/26 06:51:07;;;;;;;14.60;3.45;;;14.80;99.90;;;;;;4970855;28;20034;-58
2021/08/26 06:53:33;;;;;;;8.65;2.50;;;14.90;99.90;;;;;;4974268;28;20042;-59
2021/08/26 06:55:58;;;;;;;14.38;3.15;;;15.00;99.90;;;;;;4982617;28;20048;-59
2021/08/26 06:58:24;;;;;;;10.40;2.22;;;15.20;99.90;;;;;;4977207;28;20069;-58
2021/08/26 07:00:49;;;;;;;7.30;2.08;;;15.40;99.90;;;;;;4975061;28;20062;-58
2021/08/26 07:03:15;;;;;;;6.60;2.17;;;15.60;99.90;;;;;;4974447;28;20042;-57
2021/08/26 07:05:41;;;;;;;12.25;2.50;;;15.80;99.90;;;;;;4977216;28;20077;-58
2021/08/26 07:08:06;;;;;;;7.05;2.20;;;16.00;99.90;;;;;;4971708;28;20106;-57
2021/08/26 07:10:32;;;;;;;9.80;2.67;;;16.20;99.90;;;;;;4969606;28;20034;-57
2021/08/26 07:12:57;;;;;;;5.68;2.33;;;16.60;99.90;;;;;;4978034;28;20035;-60
2021/08/26 07:15:25;;;;;;;14.32;2.92;;;16.80;99.90;;;;;;4945263;28;20043;-61
2021/08/26 07:17:51;;;;;;;11.77;3.40;;;17.30;99.90;;;;;;4974791;28;20033;-54
2021/08/26 07:20:17;;;;;;;6.80;2.17;;;18.20;99.90;;;;;;4969263;28;20152;-60
2021/08/26 07:22:43;;;;;;;10.27;2.90;;;18.80;99.90;;;;;;4970495;28;20241;-57
2021/08/26 07:25:09;;;;;;;7.72;2.80;;;19.00;99.90;;;;;;4965817;28;20027;-57
2021/08/26 07:27:34;;;;;;;7.75;2.47;;;19.20;99.90;;;;;;4959229;28;20038;-60
2021/08/26 07:30:00;;;;;;;6.43;2.33;;;18.80;99.90;;;;;;4964099;28;20485;-58
2021/08/26 07:32:25;;;;;;;7.88;2.60;;;18.60;99.90;;;;;;4978236;28;20042;-56
2021/08/26 07:34:51;;;;;;;9.52;2.53;;;18.30;99.90;;;;;;4971211;28;20173;-56
2021/08/26 07:37:17;;;;;;;10.75;3.08;;;17.90;99.90;;;;;;4976607;28;20035;-59
2021/08/26 07:39:44;;;;;;;8.75;3.20;;;17.70;99.90;;;;;;4973186;28;20027;-58
2021/08/26 07:42:10;;;;;;;9.55;2.85;;;17.50;99.90;;;;;;4957690;28;20385;-57
2021/08/26 07:44:35;;;;;;;9.93;3.58;;;17.30;99.90;;;;;;4972879;28;20034;-59
2021/08/26 07:47:01;;;;;;;15.75;3.00;;;17.40;99.90;;;;;;4974309;28;20034;-56
2021/08/26 07:49:27;;;;;;;14.10;3.40;;;17.40;99.90;;;;;;4978568;28;20034;-57
2021/08/26 07:51:52;;;;;;;11.07;2.90;;;17.40;99.90;;;;;;4971740;28;20515;-57
2021/08/26 07:54:18;;;;;;;12.73;3.30;;;17.80;99.90;;;;;;4970120;28;20117;-57
2021/08/26 07:56:44;;;;;;;11.93;4.05;;;17.80;99.90;;;;;;4973115;28;20030;-58
2021/08/26 07:59:09;;;;;;;12.02;3.08;;;17.70;99.90;;;;;;4971734;28;20105;-59
2021/08/26 08:01:35;;;;;;;10.70;2.92;;;17.60;99.90;;;;;;4972115;28;20027;-60
2021/08/26 08:04:00;;;;;;;15.45;3.22;;;17.70;99.90;;;;;;4970693;28;20376;-53
2021/08/26 08:06:26;;;;;;;9.93;2.45;;;17.70;99.90;;;;;;4973801;28;20492;-57
2021/08/26 08:08:51;;;;;;;10.20;2.60;;;17.50;99.90;;;;;;4964271;28;20039;-58
2021/08/26 08:11:17;;;;;;;11.55;2.70;;;17.40;99.90;;;;;;4968875;28;20039;-57
2021/08/26 08:13:43;;;;;;;9.50;2.63;;;17.50;99.90;;;;;;4974636;28;20530;-53
2021/08/26 08:16:10;;;;;;;19.90;2.92;;;17.60;99.90;;;;;;4973061;28;20038;-56
2021/08/26 08:18:35;;;;;;;11.32;2.78;;;17.50;99.90;;;;;;4969568;28;20118;-58
2021/08/26 08:21:02;;;;;;;9.65;2.53;;;17.30;99.90;;;;;;4944919;28;20110;-54
2021/08/26 08:23:29;;;;;;;13.00;2.60;;;17.30;99.90;;;;;;4971451;28;20121;-58
2021/08/26 08:25:54;;;;;;;12.75;2.67;;;17.30;99.90;;;;;;4969788;28;20557;-57
2021/08/26 08:28:20;;;;;;;11.13;2.83;;;17.00;99.90;;;;;;4957560;28;20061;-53
2021/08/26 08:30:45;;;;;;;12.38;2.72;;;16.70;99.90;;;;;;4973674;28;20034;-56
2021/08/26 08:33:11;;;;;;;8.32;3.05;;;16.40;99.90;;;;;;4976594;28;20030;-57
2021/08/26 08:35:37;;;;;;;9.73;2.72;;;15.90;99.90;;;;;;4973385;28;20034;-56
2021/08/26 08:38:03;;;;;;;14.52;3.13;;;15.90;99.90;;;;;;4953617;28;20112;-57
2021/08/26 08:40:29;;;;;;;11.77;4.22;;;16.10;99.90;;;;;;4891112;28;20106;-56
2021/08/26 08:42:55;;;;;;;10.38;3.35;;;16.00;99.90;;;;;;4956416;28;20058;-57
2021/08/26 08:45:20;;;;;;;14.82;4.07;;;16.10;99.90;;;;;;4956434;28;20022;-58
2021/08/26 08:47:48;;;;;;;8.77;3.22;;;16.40;99.90;;;;;;4941564;28;20031;-54
2021/08/26 08:50:15;;;;;;;16.90;4.57;;;16.80;99.90;;;;;;4942213;28;20046;-58
2021/08/26 08:52:41;;;;;;;11.48;2.92;;;17.10;99.90;;;;;;4951329;28;20496;-56
2021/08/26 08:55:11;;;;;;;14.88;3.83;;;17.40;99.90;;;;;;4913824;28;20047;-58
2021/08/26 08:57:42;;;;;;;12.30;3.72;;;17.80;99.90;;;;;;4971338;28;20022;-54
2021/08/26 09:00:12;;;;;;;11.20;3.50;;;17.80;99.90;;;;;;4969622;28;20515;-56
2021/08/26 09:02:38;;;;;;;11.80;3.83;;;17.70;99.90;;;;;;4970126;28;20033;-59
2021/08/26 09:05:04;;;;;;;14.70;4.28;;;17.30;99.90;;;;;;4961220;28;20023;-58
2021/08/26 09:07:32;;;;;;;9.57;3.38;;;17.20;99.90;;;;;;4976168;28;20026;-54
2021/08/26 09:09:59;;;;;;;8.32;3.72;;;17.40;99.90;;;;;;4971570;28;20023;-57
2021/08/26 09:12:44;;;;;;;8.02;3.40;;;17.70;99.90;;;;;;4956003;28;20570;-57
2021/08/26 09:15:12;;;;;;;11.48;3.90;;;17.90;99.90;;;;;;4917845;28;20240;-57
2021/08/26 09:17:39;;;;;;;12.00;3.60;;;17.90;99.90;;;;;;4956261;28;20495;-58
2021/08/26 09:20:07;;;;;;;8.00;3.60;;;18.10;99.90;;;;;;4965487;28;20448;-58
2021/08/26 09:22:32;;;;;;;12.73;4.30;;;18.30;99.90;;;;;;4969853;28;20575;-59
2021/08/26 09:24:59;;;;;;;12.07;3.47;;;18.00;99.90;;;;;;4967065;28;20106;-58
2021/08/26 09:27:34;;;;;;;9.32;3.60;;;18.20;99.90;;;;;;4965254;28;20031;-57
2021/08/26 09:30:05;;;;;;;9.57;3.85;;;18.00;99.90;;;;;;4968604;28;20512;-57
2021/08/26 09:32:56;;;;;;;14.77;4.20;;;18.10;99.90;;;;;;4966347;28;20094;-57
2021/08/26 09:35:27;;;;;;;11.10;3.63;;;17.50;99.90;;;;;;4966076;28;20038;-58
2021/08/26 09:37:58;;;;;;;11.85;3.92;;;17.40;99.90;;;;;;4971496;28;20031;-56
2021/08/26 09:40:47;;;;;;;11.35;3.45;;;17.20;99.90;;;;;;4970448;28;20395;-56
2021/08/26 09:43:13;;;;;;;11.68;3.40;;;16.70;99.90;;;;;;4961928;28;20633;-57
2021/08/26 09:45:46;;;;;;;8.65;3.30;;;16.70;99.90;;;;;;4968266;28;20027;-54
2021/08/26 09:48:16;;;;;;;10.63;4.00;;;16.50;99.90;;;;;;4968922;28;20126;-54
2021/08/26 09:50:53;;;;;;;7.55;3.70;;;16.60;99.90;;;;;;4970353;28;20451;-55
2021/08/26 09:53:20;;;;;;;10.02;3.70;;;17.10;99.90;;;;;;4967898;28;20030;-56
2021/08/26 09:55:49;;;;;;;8.07;3.78;;;18.00;99.90;;;;;;4968185;28;20059;-55
2021/08/26 09:58:22;;;;;;;8.48;3.22;;;18.60;99.90;;;;;;4966464;28;20046;-55
2021/08/26 10:00:48;;;;;;;;;;;19.30;99.90;;;;;;4968900;28;20066;-59
2021/08/26 10:03:15;;;;;;;6.57;2.50;;;19.90;99.90;;;;;;4964944;28;19914;-57
2021/08/26 10:05:43;;;;;;;6.03;2.30;;;20.20;99.90;;;;;;4976005;28;20054;-60
2021/08/26 10:08:11;;;;;;;6.93;2.30;;;20.30;99.90;;;;;;4982379;28;20593;-59
2021/08/26 10:10:39;;;;;;;7.53;3.10;;;20.10;99.90;;;;;;4965046;28;20125;-59
2021/08/26 10:13:05;;;;;;;8.15;2.63;;;20.40;99.90;;;;;;4981263;28;20021;-58
2021/08/26 10:15:30;;;;;;;4.57;2.42;;;20.30;99.90;;;;;;4967261;28;20451;-56
2021/08/26 10:17:57;;;;;;;11.13;3.05;;;19.90;99.90;;;;;;4958831;28;20027;-59
2021/08/26 10:20:22;;;;;;;7.85;3.10;;;19.40;99.90;;;;;;4976280;28;20030;-57
2021/08/26 10:22:49;;;;;;;13.52;3.55;;;19.40;99.90;;;;;;4977182;28;20027;-59
2021/08/26 10:25:16;;;;;;;7.78;3.03;;;19.20;99.90;;;;;;4963903;28;20061;-59
2021/08/26 10:27:43;;;;;;;9.32;3.25;;;19.10;99.90;;;;;;4976585;28;20106;-60
2021/08/26 10:30:09;;;;;;;5.45;2.45;;;19.00;99.90;;;;;;4979303;28;20038;-58
2021/08/26 10:32:35;;;;;;;9.52;3.03;;;19.20;99.90;;;;;;4975313;28;20031;-54
2021/08/26 10:35:11;;;;;;;7.68;3.22;;;19.20;99.90;;;;;;4969192;28;20511;-59
2021/08/26 10:37:52;;;;;;;8.38;3.28;;;19.40;99.90;;;;;;4968665;28;20050;-58
2021/08/26 10:40:38;;;;;;;9.52;3.53;;;19.40;99.90;;;;;;4964458;28;20030;-58
2021/08/26 10:43:06;;;;;;;7.07;3.45;;;19.50;99.90;;;;;;4973677;28;20110;-60
2021/08/26 10:45:51;;;;;;;6.50;3.13;;;19.90;99.90;;;;;;4977788;28;20015;-58
2021/08/26 10:48:20;;;;;;;7.18;3.17;;;20.10;99.90;;;;;;4978742;28;20030;-58
2021/08/26 10:51:00;;;;;;;6.78;2.80;;;20.40;99.90;;;;;;4971969;28;20034;-56
2021/08/26 10:53:28;;;;;;;7.80;2.47;;;21.00;99.90;;;;;;4980306;28;20037;-56
2021/08/26 10:55:56;;;;;;;5.88;3.17;;;21.30;99.90;;;;;;4976350;28;20481;-55
2021/08/26 10:58:22;;;;;;;7.40;3.05;;;21.10;99.90;;;;;;4970043;28;20039;-56
2021/08/26 11:00:59;;;;;;;5.47;2.60;;;20.90;99.90;;;;;;4971563;28;20027;-57
2021/08/26 11:06:27;;;;;;;7.32;2.47;;;21.00;99.90;;;;;;4968685;28;20542;-58
2021/08/26 11:09:19;;;;;;;5.70;2.55;;;21.00;99.90;;;;;;4966084;28;20041;-57
2021/08/26 11:11:47;;;;;;;8.90;2.90;;;20.80;99.90;;;;;;4954800;28;20676;-56
2021/08/26 11:14:13;;;;;;;10.43;3.78;;;20.00;99.90;;;;;;4973412;28;20448;-58
2021/08/26 11:16:45;;;;;;;7.22;3.20;;;19.70;99.90;;;;;;4973690;28;20031;-57
2021/08/26 11:19:11;;;;;;;7.43;2.57;;;19.70;99.90;;;;;;4973817;28;20037;-56
2021/08/26 11:24:09;;;;;;;8.48;3.55;;;19.30;99.90;;;;;;4968548;28;20480;-58
2021/08/26 11:26:55;;;;;;;8.30;3.13;;;19.50;99.90;;;;;;4971937;28;20058;-59
2021/08/26 11:29:21;;;;;;;7.60;3.47;;;19.50;99.90;;;;;;4973619;28;20039;-59
2021/08/26 11:31:55;;;;;;;7.75;3.08;;;19.50;99.90;;;;;;4970256;28;20435;-56
2021/08/26 11:34:32;;;;;;;8.82;3.20;;;19.80;99.90;;;;;;4968683;28;20031;-58
2021/08/26 11:37:09;;;;;;;6.53;3.10;;;20.30;99.90;;;;;;4970432;28;20097;-57
2021/08/26 11:40:09;;;;;;;5.18;2.92;;;20.20;99.90;;;;;;4973687;28;20026;-59
2021/08/26 11:42:40;;;;;;;6.07;3.15;;;20.40;99.90;;;;;;4964732;28;20657;-55
2021/08/26 11:45:07;;;;;;;6.30;3.42;;;20.20;99.90;;;;;;4973820;28;20158;-59
2021/08/26 11:47:35;;;;;;;11.43;4.53;;;19.70;99.90;;;;;;4968944;28;20019;-57
2021/08/26 11:50:20;;;;;;;5.88;3.53;;;19.50;99.90;;;;;;4970136;28;20035;-58
2021/08/26 11:52:50;;;;;;;8.10;4.07;;;19.70;99.90;;;;;;4971378;28;20694;-54
2021/08/26 11:55:17;;;;;;;9.15;3.83;;;19.70;99.90;;;;;;4972169;28;20113;-56
2021/08/26 11:57:42;;;;;;;7.72;3.75;;;19.50;99.90;;;;;;4966152;28;20062;-59
2021/08/26 12:00:12;;;;;;;9.45;4.03;;;19.50;99.90;;;;;;4973547;28;20073;-55
2021/08/26 12:02:39;;;;;;;6.07;3.45;;;19.80;99.90;;;;;;4969964;28;20030;-56
2021/08/26 12:05:09;;;;;;;10.05;3.38;;;19.70;99.90;;;;;;4972507;28;20043;-58
2021/08/26 12:07:37;;;;;;;8.95;3.40;;;20.30;99.90;;;;;;4972127;28;20023;-60
2021/08/26 12:10:12;;;;;;;8.23;3.90;;;20.00;99.90;;;;;;4963982;28;20027;-57
2021/08/26 12:12:48;;;;;;;8.45;4.13;;;20.30;99.90;;;;;;4953846;28;20055;-60
2021/08/26 12:15:24;;;;;;;7.65;3.33;;;20.50;99.60;;;;;;4970580;28;20034;-54
2021/08/26 12:17:54;;;;;;;6.47;3.30;;;20.80;99.20;;;;;;4969971;28;20045;-58
2021/08/26 12:20:20;;;;;;;7.85;3.90;;;20.80;99.60;;;;;;4969379;28;20057;-60
2021/08/26 12:22:48;;;;;;;8.63;3.60;;;21.00;99.50;;;;;;4971618;28;20081;-59
2021/08/26 12:25:22;;;;;;;6.55;2.88;;;21.00;98.30;;;;;;4979789;28;20676;-58
2021/08/26 12:27:54;;;;;;;6.82;3.90;;;21.10;98.50;;;;;;4977539;28;20388;-58
2021/08/26 12:30:26;;;;;;;11.50;3.80;;;21.20;98.50;;;;;;4966567;28;20674;-58
2021/08/26 12:32:52;;;;;;;12.07;4.10;;;21.20;99.90;;;;;;4975459;28;20122;-58
2021/08/26 12:35:22;;;;;;;12.77;3.88;;;20.90;99.90;;;;;;4975810;28;20704;-60
2021/08/26 12:37:57;;;;;;;10.00;3.63;;;20.90;99.90;;;;;;4977220;28;20082;-58
2021/08/26 12:40:26;;;;;;;9.25;4.13;;;20.60;99.90;;;;;;4977703;28;20098;-59
2021/08/26 12:43:06;;;;;;;9.25;3.55;;;19.90;99.90;;;;;;4976124;28;20023;-57
2021/08/26 12:45:36;;;;;;;7.10;2.88;;;19.80;99.90;;;;;;4936382;28;20027;-52
2021/08/26 12:48:20;;;;;;;8.20;3.88;;;19.50;99.90;;;;;;4973599;28;20077;-59
2021/08/26 12:50:46;;;;;;;13.98;4.40;;;18.90;99.90;;;;;;4969903;28;20094;-58